Time;durP1;ratioP1;P1;durP2;ratioP2;P2;SDS_P1;SDS_P2;PMS_P1;PMS_P2;Temp;Humidity;BMP_temperature;BMP_pressure;BME280_temperature;BME280_humidity;BME280_pressure;Samples;Min_cycle;Max_cycle;Signal;HPM_P1;HPM_P2
2022/09/21 00:01:27;;;;;;;1.92;1.70;;;;;;;15.18;45.18;99735.31;5109159;28;20031;-38
2022/09/21 00:03:54;;;;;;;2.20;1.60;;;;;;;15.52;44.02;99729.34;5109425;28;20035;-38
2022/09/21 00:06:21;;;;;;;1.95;1.70;;;;;;;15.77;43.99;99727.19;5109268;28;20106;-37
2022/09/21 00:08:47;;;;;;;2.33;1.90;;;;;;;15.67;44.12;99731.50;5109598;28;20560;-37
2022/09/21 00:11:19;;;;;;;2.53;1.95;;;;;;;15.67;44.02;99721.59;5109196;28;20028;-38
2022/09/21 00:13:45;;;;;;;2.45;1.98;;;;;;;15.55;44.63;99726.97;5109512;28;20459;-37
2022/09/21 00:16:12;;;;;;;2.40;1.90;;;;;;;15.73;43.93;99734.09;5109194;28;20023;-37
2022/09/21 00:18:38;;;;;;;5.25;1.90;;;;;;;15.63;44.40;99732.00;5109165;28;20039;-37
2022/09/21 00:21:08;;;;;;;4.68;2.00;;;;;;;15.59;44.71;99738.88;5108770;28;20486;-37
2022/09/21 00:23:35;;;;;;;2.10;1.90;;;;;;;15.32;44.77;99724.34;5108558;28;20116;-38
2022/09/21 00:26:06;;;;;;;2.25;1.85;;;;;;;15.23;45.06;99729.22;5108874;28;20015;-37
2022/09/21 00:28:32;;;;;;;2.20;1.80;;;;;;;15.08;45.89;99727.06;5108773;28;20458;-37
2022/09/21 00:31:05;;;;;;;2.30;1.80;;;;;;;15.43;44.67;99736.94;5108692;28;20051;-38
2022/09/21 00:33:31;;;;;;;3.55;1.90;;;;;;;15.32;44.98;99727.03;5108598;28;20019;-37
2022/09/21 00:36:03;;;;;;;2.20;1.90;;;;;;;15.56;44.12;99735.84;5108757;28;20130;-37
2022/09/21 00:38:29;;;;;;;2.30;1.90;;;;;;;15.42;45.06;99736.13;5108757;28;20045;-37
2022/09/21 00:40:54;;;;;;;3.88;1.90;;;;;;;15.33;45.04;99744.75;5108662;28;20024;-38
2022/09/21 00:43:19;;;;;;;2.03;1.83;;;;;;;15.34;45.17;99741.00;5108917;28;20027;-37
2022/09/21 00:45:49;;;;;;;3.25;1.92;;;;;;;15.08;45.03;99729.72;5109630;28;20573;-38
2022/09/21 00:48:15;;;;;;;2.40;1.92;;;;;;;15.56;43.55;99736.66;5112649;28;20169;-37
2022/09/21 00:50:47;;;;;;;2.00;1.80;;;;;;;15.54;43.65;99728.03;5112934;28;20040;-37
2022/09/21 00:53:14;;;;;;;4.30;2.00;;;;;;;15.47;44.27;99731.91;5111986;28;20122;-37
2022/09/21 00:55:45;;;;;;;3.10;1.70;;;;;;;15.47;43.74;99726.53;5112287;28;20129;-37
2022/09/21 00:58:16;;;;;;;2.47;1.90;;;;;;;15.71;43.01;99733.50;5112491;28;20050;-38
2022/09/21 01:00:42;;;;;;;2.55;1.88;;;;;;;15.96;42.42;99732.41;5112176;28;20019;-37
2022/09/21 01:03:09;;;;;;;2.15;1.90;;;;;;;16.04;42.38;99740.06;5111987;28;20116;-38
2022/09/21 01:05:34;;;;;;;1.85;1.70;;;;;;;16.27;41.29;99741.00;5112244;28;20020;-37
2022/09/21 01:08:02;;;;;;;1.80;1.70;;;;;;;16.28;41.96;99737.25;5112160;28;20030;-37
2022/09/21 01:10:40;;;;;;;4.03;1.90;;;;;;;15.74;43.20;99727.66;5112395;28;20043;-37
2022/09/21 01:13:40;;;;;;;3.33;1.75;;;;;;;15.89;42.84;99727.16;5111866;28;20023;-37
2022/09/21 01:16:18;;;;;;;3.13;1.80;;;;;;;15.54;43.37;99724.56;5103637;28;20038;-37
2022/09/21 01:19:10;;;;;;;2.85;1.70;;;;;;;15.57;42.71;99716.03;5112106;28;20084;-37
2022/09/21 01:22:02;;;;;;;3.20;2.10;;;;;;;15.99;42.25;99723.84;5111786;28;20026;-37
2022/09/21 01:24:47;;;;;;;4.05;1.75;;;;;;;15.71;43.25;99719.28;5111513;28;20034;-38
2022/09/21 01:27:33;;;;;;;4.53;1.80;;;;;;;15.66;43.56;99713.78;5111816;28;20031;-38
2022/09/21 01:30:07;;;;;;;2.00;1.80;;;;;;;15.82;43.01;99713.91;5111829;28;20027;-38
2022/09/21 01:32:41;;;;;;;2.08;1.83;;;;;;;16.06;42.15;99712.97;5111825;28;20028;-37
2022/09/21 01:35:16;;;;;;;3.10;1.80;;;;;;;16.14;42.00;99696.47;5111458;28;20446;-37
2022/09/21 01:37:47;;;;;;;2.67;1.85;;;;;;;15.90;42.49;99699.28;5111935;28;20448;-37
2022/09/21 01:40:29;;;;;;;2.58;2.13;;;;;;;15.99;41.82;99700.53;5111676;28;20034;-37
2022/09/21 01:42:57;;;;;;;3.55;2.00;;;;;;;15.96;42.35;99705.56;5111381;28;20024;-37
2022/09/21 01:45:29;;;;;;;2.00;1.80;;;;;;;16.18;41.88;99700.31;5111319;28;20092;-37
2022/09/21 01:47:58;;;;;;;7.13;2.40;;;;;;;15.80;42.54;99697.22;5111668;28;20459;-36
2022/09/21 01:50:26;;;;;;;2.23;1.90;;;;;;;15.80;43.27;99697.22;5111523;28;20047;-36
2022/09/21 01:53:11;;;;;;;2.45;1.83;;;;;;;15.73;42.69;99698.38;5111108;28;20028;-36
2022/09/21 01:55:46;;;;;;;3.45;1.92;;;;;;;15.66;42.85;99695.00;5110526;28;20083;-37
2022/09/21 01:58:25;;;;;;;2.10;1.90;;;;;;;15.73;43.72;99703.75;5110159;27;20027;-37
2022/09/21 02:00:55;;;;;;;3.28;1.90;;;;;;;15.86;42.53;99703.50;5111040;27;20092;-37
2022/09/21 02:03:30;;;;;;;1.70;1.60;;;;;;;15.77;43.38;99711.09;5110890;28;20027;-37
2022/09/21 02:05:56;;;;;;;2.53;2.00;;;;;;;15.66;43.17;99701.19;5111285;28;20171;-37
2022/09/21 02:08:25;;;;;;;2.42;2.10;;;;;;;15.64;43.60;99697.94;5110874;28;20075;-37
2022/09/21 02:10:52;;;;;;;3.58;2.00;;;;;;;15.76;43.02;99704.13;5111081;28;20047;-37
2022/09/21 02:13:22;;;;;;;2.70;1.70;;;;;;;15.83;42.95;99696.72;5110887;28;20028;-37
2022/09/21 02:15:54;;;;;;;3.92;1.80;;;;;;;15.86;43.37;99702.66;5110890;28;20491;-37
2022/09/21 02:18:31;;;;;;;2.42;1.90;;;;;;;15.70;43.07;99706.91;5110700;28;20055;-38
2022/09/21 02:20:59;;;;;;;2.17;1.65;;;;;;;15.91;42.43;99705.44;5110729;28;20025;-37
2022/09/21 02:23:33;;;;;;;3.10;1.65;;;;;;;15.75;43.30;99699.78;5110718;28;20023;-37
2022/09/21 02:26:08;;;;;;;3.50;1.85;;;;;;;15.74;43.55;99705.41;5110589;28;20428;-38
2022/09/21 02:28:52;;;;;;;4.68;1.90;;;;;;;15.85;43.08;99711.78;5110339;27;20106;-38
2022/09/21 02:31:32;;;;;;;3.72;2.00;;;;;;;16.05;43.08;99714.88;5110614;28;20445;-38
2022/09/21 02:34:09;;;;;;;2.05;1.85;;;;;;;16.17;42.36;99699.50;5110565;28;20066;-38
2022/09/21 02:36:46;;;;;;;3.33;1.90;;;;;;;16.27;42.15;99714.97;5110835;28;20028;-38
2022/09/21 02:39:20;;;;;;;3.42;2.00;;;;;;;16.13;42.60;99714.47;5110262;28;20038;-37
2022/09/21 02:42:04;;;;;;;2.40;2.10;;;;;;;15.82;43.60;99716.56;5110444;28;20024;-37
2022/09/21 02:44:45;;;;;;;2.38;1.90;;;;;;;15.60;43.74;99705.63;5110309;28;20475;-36
2022/09/21 02:47:35;;;;;;;2.63;1.77;;;;;;;15.33;44.52;99699.19;5110332;28;20050;-37
2022/09/21 02:50:06;;;;;;;2.60;2.00;;;;;;;15.09;44.59;99707.22;5110250;28;20031;-36
2022/09/21 02:52:34;;;;;;;2.63;2.10;;;;;;;15.39;44.45;99712.44;5110275;28;20043;-38
2022/09/21 02:55:00;;;;;;;2.42;1.90;;;;;;;15.53;44.92;99713.00;5110047;28;20317;-37
2022/09/21 02:57:26;;;;;;;2.63;1.77;;;;;;;15.69;44.46;99718.66;5108511;28;20050;-37
2022/09/21 02:59:52;;;;;;;2.35;2.08;;;;;;;15.58;43.91;99712.31;5109880;28;20494;-37
2022/09/21 03:02:17;;;;;;;3.25;1.80;;;;;;;15.35;45.10;99715.84;5109690;28;20428;-37
2022/09/21 03:04:48;;;;;;;3.55;2.00;;;;;;;15.30;45.17;99716.53;5109798;28;20044;-37
2022/09/21 03:07:17;;;;;;;4.35;1.95;;;;;;;15.48;44.47;99709.38;5110046;28;20024;-36
2022/09/21 03:09:43;;;;;;;2.90;1.83;;;;;;;15.22;45.36;99720.38;5107448;27;20092;-37
2022/09/21 03:12:08;;;;;;;26.23;17.92;;;;;;;15.27;45.91;99717.03;5092346;28;20023;-37
2022/09/21 03:14:34;;;;;;;9.15;3.90;;;;;;;15.33;45.43;99724.13;5109606;28;20031;-37
2022/09/21 03:16:59;;;;;;;3.60;2.60;;;;;;;15.56;45.12;99725.94;5109458;28;20034;-36
2022/09/21 03:19:25;;;;;;;3.03;2.30;;;;;;;15.40;45.09;99726.66;5109527;28;20043;-38
2022/09/21 03:21:51;;;;;;;3.63;2.40;;;;;;;15.72;44.91;99729.75;5109432;28;20057;-37
2022/09/21 03:24:44;;;;;;;3.95;2.20;;;;;;;15.38;44.96;99723.41;5109398;28;20061;-37
2022/09/21 03:27:01;;;;;;;3.35;2.30;;;;;;;15.45;45.83;99719.53;5109436;28;20039;-37
2022/09/21 03:29:27;;;;;;;2.20;2.00;;;;;;;15.62;45.29;99732.22;5109308;28;20024;-37
2022/09/21 03:31:54;;;;;;;4.22;2.10;;;;;;;15.27;46.14;99729.59;5109184;28;20034;-36
2022/09/21 03:34:20;;;;;;;2.70;2.20;;;;;;;15.09;46.23;99730.53;5109273;28;20125;-37
2022/09/21 03:36:46;;;;;;;5.75;2.50;;;;;;;15.29;45.70;99725.63;5109614;28;20495;-37
2022/09/21 03:39:11;;;;;;;3.72;2.40;;;;;;;14.86;47.29;99734.84;5109525;28;20034;-36
2022/09/21 03:41:37;;;;;;;3.42;2.38;;;;;;;15.21;46.63;99731.34;5106804;28;20019;-36
2022/09/21 03:44:03;;;;;;;3.65;2.22;;;;;;;15.42;46.56;99736.13;5108016;28;20042;-37
2022/09/21 03:46:29;;;;;;;2.72;2.22;;;;;;;15.28;46.97;99748.13;5108876;28;20031;-36
2022/09/21 03:48:54;;;;;;;3.00;2.40;;;;;;;14.98;47.63;99734.84;5109399;28;20028;-37
2022/09/21 03:51:19;;;;;;;2.90;2.30;;;;;;;14.81;47.82;99740.91;5108043;28;20119;-36
2022/09/21 03:53:45;;;;;;;4.53;2.40;;;;;;;14.91;47.70;99734.13;5106821;28;20020;-36
2022/09/21 03:56:10;;;;;;;3.05;2.40;;;;;;;14.98;47.78;99733.00;5107185;28;20028;-37
2022/09/21 03:58:36;;;;;;;5.38;2.40;;;;;;;15.03;47.70;99732.28;5106908;28;20044;-37
2022/09/21 04:01:03;;;;;;;3.55;2.15;;;;;;;15.13;49.07;99737.88;5107341;28;20136;-36
2022/09/21 04:03:29;;;;;;;3.70;2.50;;;;;;;15.22;51.68;99746.38;5107495;28;20020;-36
2022/09/21 04:05:54;;;;;;;2.80;2.42;;;;;;;15.45;46.90;99734.81;5107668;28;20503;-38
2022/09/21 04:08:20;;;;;;;5.18;2.45;;;;;;;15.60;46.80;99729.78;5107518;28;20092;-37
2022/09/21 04:10:45;;;;;;;3.92;1.98;;;;;;;15.44;46.80;99725.97;5107808;28;20608;-37
2022/09/21 04:13:12;;;;;;;2.38;2.13;;;;;;;15.77;45.66;99737.13;5107958;28;20487;-37
2022/09/21 04:15:38;;;;;;;3.10;2.60;;;;;;;15.46;47.48;99731.09;5108257;28;20107;-36
2022/09/21 04:18:04;;;;;;;4.72;3.38;;;;;;;15.45;46.42;99740.19;5108733;28;20122;-37
2022/09/21 04:20:30;;;;;;;7.35;3.20;;;;;;;16.12;49.34;99750.41;5109019;28;20026;-36
2022/09/21 04:22:56;;;;;;;3.35;2.20;;;;;;;15.41;47.13;99741.72;5112405;28;20023;-36
2022/09/21 04:25:21;;;;;;;3.20;2.55;;;;;;;15.27;47.05;99748.34;5112647;28;20034;-36
2022/09/21 04:27:47;;;;;;;3.15;2.25;;;;;;;15.08;47.47;99743.13;5112649;28;20093;-36
2022/09/21 04:30:15;;;;;;;2.97;2.22;;;;;;;14.97;48.24;99749.31;5112666;28;20105;-36
2022/09/21 04:32:41;;;;;;;5.03;2.30;;;;;;;14.97;47.98;99743.94;5112520;27;20028;-36
2022/09/21 04:35:07;;;;;;;5.57;2.30;;;;;;;14.57;48.44;99720.47;5110422;28;20502;-37
2022/09/21 04:37:33;;;;;;;5.55;2.28;;;;;;;14.99;48.46;99748.00;5108587;28;20030;-37
2022/09/21 04:39:59;;;;;;;3.80;2.67;;;;;;;15.49;46.71;99748.56;5104452;28;20036;-36
2022/09/21 04:42:26;;;;;;;7.45;2.63;;;;;;;15.77;46.37;99751.34;5092554;28;20024;-36
2022/09/21 04:44:51;;;;;;;6.22;2.47;;;;;;;15.67;46.37;99750.28;5092800;28;20019;-37
2022/09/21 04:47:18;;;;;;;4.18;2.50;;;;;;;15.62;45.71;99756.38;5091745;28;20042;-36
2022/09/21 04:49:43;;;;;;;4.60;2.63;;;;;;;15.55;46.81;99747.63;5091735;28;20405;-36
2022/09/21 04:52:09;;;;;;;4.72;2.72;;;;;;;15.21;47.53;99750.09;5091333;28;20125;-36
2022/09/21 04:54:34;;;;;;;5.68;2.90;;;;;;;15.72;46.39;99751.19;5090769;28;20038;-36
2022/09/21 04:56:59;;;;;;;5.22;2.60;;;;;;;15.46;47.22;99752.56;5091153;28;20054;-36
2022/09/21 04:59:25;;;;;;;5.15;2.55;;;;;;;15.47;47.33;99748.81;5090285;28;20028;-37
2022/09/21 05:01:50;;;;;;;6.53;3.20;;;;;;;15.47;47.25;99748.00;5099446;28;20019;-37
2022/09/21 05:04:16;;;;;;;12.40;7.32;;;;;;;15.63;47.18;99756.13;5111352;28;20209;-36
2022/09/21 05:06:41;;;;;;;4.82;2.80;;;;;;;15.21;47.71;99752.78;5111623;28;20137;-36
2022/09/21 05:11:51;;;;;;;5.18;2.30;;;;;;;15.50;46.94;99752.88;5111988;28;20031;-36
2022/09/21 05:14:17;;;;;;;5.40;2.30;;;;;;;15.57;46.68;99753.56;5112042;28;20019;-36
2022/09/21 05:16:42;;;;;;;4.25;2.17;;;;;;;15.54;47.55;99765.59;5111677;28;20019;-36
2022/09/21 05:19:08;;;;;;;6.47;2.47;;;;;;;15.81;46.77;99752.50;5111763;28;20052;-37
2022/09/21 05:21:35;;;;;;;4.38;2.25;;;;;;;15.74;46.62;99756.38;5111770;28;20028;-36
2022/09/21 05:24:01;;;;;;;5.85;2.30;;;;;;;15.96;46.83;99753.88;5111555;28;20487;-36
2022/09/21 05:26:26;;;;;;;5.07;2.08;;;;;;;15.77;46.08;99750.53;5111829;28;20156;-35
2022/09/21 05:28:52;;;;;;;3.08;2.30;;;;;;;15.59;46.52;99743.41;5111703;28;20110;-36
2022/09/21 05:31:39;;;;;;;4.53;2.50;;;;;;;15.76;46.31;99749.72;5111375;28;20024;-36
2022/09/21 05:34:45;;;;;;;3.80;2.55;;;;;;;15.98;46.66;99746.38;5108959;28;20398;-36
2022/09/21 05:37:32;;;;;;;4.63;2.78;;;;;;;16.65;44.84;99753.75;5111262;28;20034;-37
2022/09/21 05:39:58;;;;;;;4.30;2.30;;;;;;;16.59;45.08;99744.81;5111096;28;20051;-37
2022/09/21 05:42:24;;;;;;;6.53;2.50;;;;;;;17.01;44.12;99749.00;5111405;28;20051;-37
2022/09/21 05:44:49;;;;;;;5.47;2.30;;;;;;;16.59;44.14;99749.38;5111572;28;20031;-37
2022/09/21 05:47:36;;;;;;;3.97;2.53;;;;;;;17.19;44.17;99751.44;5111569;28;20027;-37
2022/09/21 05:50:23;;;;;;;7.25;2.30;;;;;;;17.33;43.53;99753.78;5111384;28;20501;-36
2022/09/21 05:53:18;;;;;;;3.67;2.30;;;;;;;17.25;44.19;99756.84;5111134;28;20015;-37
2022/09/21 05:56:02;;;;;;;6.30;2.80;;;;;;;17.87;42.62;99751.25;5110843;28;20051;-37
2022/09/21 05:58:39;;;;;;;3.95;2.22;;;;;;;17.27;44.34;99760.13;5110906;28;20049;-37
2022/09/21 06:01:25;;;;;;;4.57;2.47;;;;;;;17.53;43.95;99759.41;5110429;28;20024;-38
2022/09/21 06:03:51;;;;;;;4.63;2.30;;;;;;;17.15;44.77;99771.81;5110546;28;20102;-36
2022/09/21 06:06:18;;;;;;;4.70;2.70;;;;;;;17.50;44.06;99759.13;5111040;28;20051;-37
2022/09/21 06:08:44;;;;;;;3.80;2.35;;;;;;;17.66;43.52;99763.63;5111176;28;20057;-37
2022/09/21 06:11:09;;;;;;;6.75;2.78;;;;;;;17.51;43.52;99763.41;5111065;28;20066;-36
2022/09/21 06:13:36;;;;;;;6.75;2.80;;;;;;;17.55;43.26;99757.31;5110675;28;20023;-37
2022/09/21 06:16:02;;;;;;;4.80;2.40;;;;;;;17.75;43.19;99756.75;5111107;28;20494;-37
2022/09/21 06:18:28;;;;;;;4.10;2.50;;;;;;;17.26;44.51;99751.25;5110945;28;20095;-36
2022/09/21 06:20:53;;;;;;;8.25;2.40;;;;;;;17.77;43.69;99762.69;5110959;28;20489;-36
2022/09/21 06:23:18;;;;;;;3.63;2.40;;;;;;;17.96;43.03;99763.22;5110585;28;20028;-36
2022/09/21 06:25:50;;;;;;;3.85;2.47;;;;;;;17.74;43.49;99765.06;5110825;28;20030;-36
2022/09/21 06:28:15;;;;;;;6.05;2.30;;;;;;;18.08;42.63;99764.94;5110869;28;20020;-35
2022/09/21 06:30:42;;;;;;;6.03;2.40;;;;;;;18.65;42.36;99769.03;5111103;28;20045;-36
2022/09/21 06:33:08;;;;;;;4.63;2.60;;;;;;;19.07;41.04;99769.13;5110418;28;20038;-36
2022/09/21 06:35:35;;;;;;;6.80;2.22;;;;;;;19.47;39.98;99762.34;5110758;28;20411;-36
2022/09/21 06:38:02;;;;;;;4.57;2.50;;;;;;;19.27;39.95;99759.56;5110854;28;20503;-36
2022/09/21 06:40:29;;;;;;;5.57;2.40;;;;;;;19.64;39.43;99758.66;5110506;28;20094;-37
2022/09/21 06:42:59;;;;;;;4.35;2.40;;;;;;;19.98;38.70;99761.00;5110414;28;20031;-35
2022/09/21 06:45:25;;;;;;;5.75;3.00;;;;;;;20.41;37.97;99764.31;5109928;28;20440;-36
2022/09/21 06:47:51;;;;;;;6.03;2.15;;;;;;;20.22;38.21;99770.25;5110766;28;20126;-35
2022/09/21 06:50:17;;;;;;;5.70;2.05;;;;;;;20.35;37.58;99776.19;5110426;28;20115;-36
2022/09/21 06:52:43;;;;;;;3.05;1.65;;;;;;;20.62;36.97;99776.00;5110098;28;20096;-36
2022/09/21 06:55:09;;;;;;;2.75;1.90;;;;;;;20.36;38.24;99775.13;5109567;28;20093;-35
2022/09/21 06:57:36;;;;;;;3.72;2.20;;;;;;;20.06;38.05;99777.47;5110052;28;20016;-36
2022/09/21 07:00:03;;;;;;;5.72;2.00;;;;;;;20.41;37.61;99785.94;5110171;28;20050;-36
2022/09/21 07:02:28;;;;;;;3.45;1.90;;;;;;;19.49;38.34;99770.19;5110479;28;20028;-40
2022/09/21 07:04:54;;;;;;;4.07;2.00;;;;;;;19.53;38.74;99791.00;5110591;28;20020;-37
2022/09/21 07:07:19;;;;;;;4.47;2.10;;;;;;;19.71;38.49;99786.22;5109828;28;20024;-36
2022/09/21 07:09:45;;;;;;;3.70;2.00;;;;;;;19.59;38.93;99783.75;5109970;28;20344;-36
2022/09/21 07:12:10;;;;;;;5.05;2.00;;;;;;;20.59;36.85;99785.44;5110093;28;20071;-36
2022/09/21 07:14:36;;;;;;;5.28;2.35;;;;;;;20.76;36.79;99793.31;5110261;28;20019;-37
2022/09/21 07:17:01;;;;;;;5.10;2.13;;;;;;;21.20;36.38;99790.06;5109807;28;20019;-36
2022/09/21 07:19:27;;;;;;;4.18;1.90;;;;;;;21.73;35.01;99778.84;5109535;28;20075;-36
2022/09/21 07:21:53;;;;;;;9.77;2.45;;;;;;;21.59;35.39;99785.94;5109853;28;20474;-37
2022/09/21 07:24:20;;;;;;;9.70;2.47;;;;;;;21.95;34.29;99783.09;5109563;28;20070;-36
2022/09/21 07:26:45;;;;;;;4.03;2.10;;;;;;;21.96;34.01;99785.53;5109446;28;20498;-37
2022/09/21 07:29:11;;;;;;;5.05;2.00;;;;;;;22.14;33.67;99778.69;5109162;28;20034;-37
2022/09/21 07:31:37;;;;;;;5.68;1.88;;;;;;;22.01;34.16;99782.00;5109203;28;20397;-37
2022/09/21 07:34:02;;;;;;;3.13;2.10;;;;;;;21.95;34.36;99777.69;5109628;28;20038;-37
2022/09/21 07:36:27;;;;;;;7.40;2.10;;;;;;;21.59;34.58;99783.22;5109505;28;20080;-35
2022/09/21 07:38:53;;;;;;;4.13;2.30;;;;;;;21.98;34.05;99772.53;5109001;28;20430;-37
2022/09/21 07:41:19;;;;;;;3.78;1.80;;;;;;;21.54;34.42;99781.34;5109269;28;20035;-36
2022/09/21 07:43:44;;;;;;;4.82;1.83;;;;;;;21.95;34.05;99774.97;5109241;28;20122;-36
2022/09/21 07:46:12;;;;;;;3.38;1.75;;;;;;;22.05;33.35;99774.94;5109282;28;20122;-36
2022/09/21 07:48:38;;;;;;;5.63;2.10;;;;;;;22.10;33.43;99772.19;5109196;28;20027;-37
2022/09/21 07:51:09;;;;;;;3.38;1.70;;;;;;;22.28;33.21;99780.81;5109645;28;20418;-36
2022/09/21 07:53:36;;;;;;;5.65;1.60;;;;;;;22.30;33.05;99767.78;5108958;28;20542;-36
2022/09/21 07:56:08;;;;;;;2.85;1.50;;;;;;;22.48;32.55;99775.22;5106872;28;20058;-37
2022/09/21 08:01:19;;;;;;;3.97;1.52;;;;;;;22.57;31.40;99773.56;5109244;28;20108;-36
2022/09/21 08:03:48;;;;;;;4.13;1.83;;;;;;;22.15;32.52;99761.31;5109215;28;20122;-36
2022/09/21 08:06:13;;;;;;;2.25;1.63;;;;;;;22.86;31.57;99759.22;5109624;28;20114;-36
2022/09/21 08:08:40;;;;;;;3.92;2.00;;;;;;;23.26;30.81;99765.38;5109319;28;20111;-36
2022/09/21 08:11:07;;;;;;;3.60;1.77;;;;;;;22.39;31.75;99760.66;5109002;28;20024;-36
2022/09/21 08:13:33;;;;;;;3.25;1.30;;;;;;;22.78;31.23;99752.50;5108340;28;20442;-37
2022/09/21 08:16:02;;;;;;;7.38;1.77;;;;;;;22.17;32.38;99748.31;5108715;28;20103;-37
2022/09/21 08:18:28;;;;;;;3.80;1.60;;;;;;;22.18;32.12;99732.84;5108470;28;20518;-37
2022/09/21 08:20:55;;;;;;;5.00;1.90;;;;;;;22.19;31.81;99740.69;5108572;28;20088;-37
2022/09/21 08:23:21;;;;;;;3.63;1.40;;;;;;;23.40;30.59;99736.47;5108714;28;20042;-37
2022/09/21 08:25:47;;;;;;;6.38;2.13;;;;;;;24.08;29.58;99741.88;5108466;28;20475;-37
2022/09/21 08:28:13;;;;;;;10.82;2.70;;;;;;;24.02;29.88;99729.47;5108603;28;20023;-36
2022/09/21 08:30:40;;;;;;;5.35;2.15;;;;;;;24.69;28.16;99732.00;5108562;28;20026;-37
2022/09/21 08:33:07;;;;;;;4.03;2.08;;;;;;;23.98;28.44;99729.25;5108790;28;20472;-36
2022/09/21 08:35:33;;;;;;;3.28;1.80;;;;;;;24.54;28.22;99725.75;5108736;28;20052;-37
2022/09/21 08:37:58;;;;;;;5.00;1.60;;;;;;;24.80;27.55;99729.94;5108466;28;20023;-37
2022/09/21 08:40:24;;;;;;;1.83;1.40;;;;;;;24.74;27.96;99713.69;5108488;28;20456;-37
2022/09/21 08:42:59;;;;;;;5.78;1.50;;;;;;;24.32;27.60;99723.59;5108501;28;20471;-37
2022/09/21 08:45:33;;;;;;;5.55;1.38;;;;;;;24.67;27.29;99720.63;5108244;28;20451;-37
2022/09/21 08:48:03;;;;;;;4.18;1.70;;;;;;;24.35;28.08;99731.16;5108751;28;20128;-37
2022/09/21 08:50:36;;;;;;;1.52;1.20;;;;;;;23.92;28.38;99719.56;5108998;28;20024;-37
2022/09/21 08:53:11;;;;;;;2.03;1.27;;;;;;;24.00;28.68;99716.97;5108082;28;20035;-36
2022/09/21 08:55:37;;;;;;;2.78;1.02;;;;;;;23.74;29.18;99702.94;5108314;28;20085;-36
2022/09/21 08:58:03;;;;;;;2.55;1.30;;;;;;;23.98;28.80;99702.88;5108225;28;20035;-36
2022/09/21 09:00:36;;;;;;;1.85;1.10;;;;;;;23.79;28.03;99699.34;5108543;28;20091;-37
2022/09/21 09:03:11;;;;;;;1.50;1.25;;;;;;;23.51;27.89;99703.75;5107841;28;20019;-36
2022/09/21 09:05:58;;;;;;;3.05;1.63;;;;;;;23.79;27.57;99702.88;5108639;28;20028;-36
2022/09/21 09:08:23;;;;;;;4.05;1.13;;;;;;;23.74;28.24;99689.34;5111464;28;20042;-37
2022/09/21 09:11:16;;;;;;;1.40;1.05;;;;;;;23.88;28.21;99686.72;5112287;28;20020;-36
2022/09/21 09:14:03;;;;;;;2.85;1.20;;;;;;;24.44;28.00;99687.78;5111664;28;20432;-36
2022/09/21 09:16:50;;;;;;;4.20;1.67;;;;;;;24.49;26.94;99676.81;5111890;28;20110;-36
2022/09/21 09:19:27;;;;;;;3.28;1.02;;;;;;;24.36;27.51;99678.38;5111945;28;20104;-36
2022/09/21 09:21:55;;;;;;;4.03;1.10;;;;;;;23.95;28.48;99672.75;5111915;28;20046;-37
2022/09/21 09:24:34;;;;;;;4.43;1.00;;;;;;;23.71;28.17;99676.34;5111114;27;20551;-37
2022/09/21 09:27:32;;;;;;;1.95;0.80;;;;;;;24.00;27.93;99683.56;5111924;28;20084;-37
2022/09/21 09:30:02;;;;;;;2.97;1.00;;;;;;;23.15;29.24;99675.13;5107998;28;20130;-36
2022/09/21 09:32:36;;;;;;;3.15;1.00;;;;;;;23.56;28.40;99662.97;5111883;28;20439;-36
2022/09/21 09:35:17;;;;;;;2.67;0.90;;;;;;;23.68;27.94;99659.81;5111699;28;20034;-36
2022/09/21 09:37:44;;;;;;;2.88;1.20;;;;;;;24.03;27.80;99663.97;5111723;28;20027;-36
2022/09/21 09:40:13;;;;;;;2.38;1.13;;;;;;;23.88;27.17;99661.47;5111741;28;20032;-37
2022/09/21 09:43:23;;;;;;;2.70;0.85;;;;;;;23.17;27.43;99655.81;5111732;28;20123;-36
2022/09/21 09:45:57;;;;;;;3.38;1.00;;;;;;;23.42;27.77;99663.66;5087043;28;20046;-37
2022/09/21 09:48:54;;;;;;;4.30;2.10;;;;;;;23.78;27.05;99655.09;5111179;28;20039;-36
2022/09/21 09:51:20;;;;;;;1.63;0.80;;;;;;;23.05;27.44;99656.22;5111798;28;20052;-37
2022/09/21 09:53:45;;;;;;;0.77;0.60;;;;;;;23.28;27.17;99656.53;5111505;28;20024;-37
2022/09/21 09:56:13;;;;;;;1.75;0.60;;;;;;;23.30;27.69;99657.03;5110908;28;20035;-36
2022/09/21 09:58:51;;;;;;;1.58;0.95;;;;;;;23.59;27.43;99652.31;5111095;28;20119;-37
2022/09/21 10:01:48;;;;;;;1.42;0.80;;;;;;;22.86;28.32;99664.25;5110701;28;20102;-37
2022/09/21 10:04:16;;;;;;;0.50;0.50;;;;;;;23.19;27.60;99646.31;5109961;28;20422;-38
2022/09/21 10:06:42;;;;;;;2.70;0.68;;;;;;;23.36;28.21;99647.72;5110736;27;20027;-37
2022/09/21 10:09:32;;;;;;;9.30;1.40;;;;;;;23.83;28.06;99650.66;5110905;27;20020;-38
2022/09/21 10:12:23;;;;;;;5.20;1.02;;;;;;;24.19;27.67;99640.06;5111113;27;20496;-38
2022/09/21 10:14:51;;;;;;;3.85;1.15;;;;;;;24.25;27.88;99632.63;5110942;28;20023;-37
2022/09/21 10:17:18;;;;;;;6.18;1.17;;;;;;;23.88;27.90;99642.47;5110538;28;20023;-36
2022/09/21 10:19:44;;;;;;;3.03;0.88;;;;;;;24.48;27.47;99630.88;5110123;28;20422;-37
2022/09/21 10:22:18;;;;;;;1.13;0.95;;;;;;;24.80;27.29;99626.53;5110540;28;20030;-37
2022/09/21 10:24:53;;;;;;;2.20;0.95;;;;;;;24.51;27.31;99628.41;5110192;28;20050;-38
2022/09/21 10:27:27;;;;;;;5.82;1.20;;;;;;;23.98;27.65;99628.69;5110021;28;20024;-37
2022/09/21 10:29:53;;;;;;;1.48;0.90;;;;;;;23.15;28.07;99622.72;5110200;28;20035;-37
2022/09/21 10:32:21;;;;;;;2.33;1.00;;;;;;;23.70;27.66;99625.00;5110138;27;20093;-37
2022/09/21 10:35:04;;;;;;;2.85;0.90;;;;;;;23.34;27.74;99622.78;5110453;28;20027;-37
2022/09/21 10:37:33;;;;;;;2.22;1.15;;;;;;;23.34;28.26;99612.75;5110148;28;20145;-37
2022/09/21 10:39:59;;;;;;;1.17;0.80;;;;;;;23.90;27.22;99610.38;5109332;28;20030;-36
2022/09/21 10:42:28;;;;;;;1.60;0.93;;;;;;;24.26;27.18;99607.88;5109990;28;20359;-36
2022/09/21 10:45:15;;;;;;;2.58;0.68;;;;;;;23.55;27.86;99601.59;5110402;28;20155;-38
2022/09/21 10:47:48;;;;;;;1.88;0.95;;;;;;;23.35;27.59;99606.19;5110692;28;20468;-36
2022/09/21 10:50:28;;;;;;;6.82;0.90;;;;;;;23.58;27.46;99615.38;5110299;27;20019;-37
2022/09/21 10:53:18;;;;;;;4.75;1.17;;;;;;;23.86;27.27;99606.63;5110060;28;20410;-36
2022/09/21 10:55:57;;;;;;;2.92;0.98;;;;;;;23.32;27.61;99606.81;5108611;28;20031;-37
2022/09/21 10:58:23;;;;;;;2.20;1.00;;;;;;;23.58;27.45;99609.16;5110169;28;20479;-36
2022/09/21 11:00:50;;;;;;;3.70;0.80;;;;;;;23.48;27.62;99604.69;5109533;28;20066;-38
2022/09/21 11:03:41;;;;;;;3.22;0.90;;;;;;;24.20;26.93;99604.44;5109720;28;20398;-37
2022/09/21 11:06:15;;;;;;;2.05;1.05;;;;;;;23.25;27.85;99609.06;5109629;27;20522;-37
2022/09/21 11:09:15;;;;;;;1.38;0.85;;;;;;;23.59;27.33;99610.78;5109894;28;20055;-37
2022/09/21 11:12:03;;;;;;;2.03;0.70;;;;;;;23.95;26.98;99605.66;5109722;28;20024;-37
2022/09/21 11:14:54;;;;;;;1.05;0.90;;;;;;;23.75;27.34;99605.94;5110005;28;20035;-36
2022/09/21 11:17:35;;;;;;;1.20;0.70;;;;;;;23.02;28.05;99594.38;5067545;28;20066;-38
2022/09/21 11:20:19;;;;;;;3.17;0.70;;;;;;;24.08;26.51;99589.69;5108188;28;20038;-37
2022/09/21 11:22:48;;;;;;;2.78;0.95;;;;;;;24.17;26.75;99593.34;5109065;28;20486;-38
2022/09/21 11:25:30;;;;;;;;;;;;;;;24.41;26.71;99595.94;5109696;28;20495;-36
2022/09/21 11:28:18;;;;;;;2.28;1.10;;;;;;;23.32;27.45;99590.50;5109119;28;19908;-36
2022/09/21 11:31:06;;;;;;;2.17;1.27;;;;;;;24.27;26.52;99595.88;5108929;28;20566;-36
2022/09/21 11:34:00;;;;;;;4.95;1.00;;;;;;;23.36;27.67;99593.44;5108907;28;20439;-37
2022/09/21 11:36:51;;;;;;;3.85;1.00;;;;;;;23.30;27.84;99587.25;5108990;28;20072;-36
2022/09/21 11:39:35;;;;;;;3.90;1.00;;;;;;;23.55;27.49;99588.84;5108853;28;20456;-37
2022/09/21 11:42:32;;;;;;;3.13;1.35;;;;;;;23.83;27.07;99580.84;5109153;28;20027;-37
2022/09/21 11:45:00;;;;;;;1.85;0.75;;;;;;;24.12;26.64;99574.38;5109410;28;20114;-37
2022/09/21 11:47:58;;;;;;;1.58;0.90;;;;;;;23.86;27.15;99579.47;5109265;28;20019;-36
2022/09/21 11:50:56;;;;;;;3.40;1.55;;;;;;;24.37;27.29;99578.59;5109213;28;20122;-38
2022/09/21 11:53:48;;;;;;;4.38;1.20;;;;;;;24.23;26.79;99567.69;5091654;28;20040;-36
2022/09/21 11:56:42;;;;;;;3.25;1.05;;;;;;;23.98;27.60;99577.88;5108772;28;20023;-37
2022/09/21 11:59:28;;;;;;;2.70;0.95;;;;;;;23.93;27.20;99567.09;5109320;28;20122;-36
2022/09/21 12:02:39;;;;;;;1.90;1.05;;;;;;;24.30;27.33;99567.31;5106877;28;20027;-36